sensor_id;sensor_type;location;lat;lon;timestamp;pressure;altitude;pressure_sealevel;temperature;humidity
50652;BME280;61429;52.086;5.240;2022-08-06T00:00:12;102484.99999999999;;;16.38;62.03
50652;BME280;61429;52.086;5.240;2022-08-06T00:01:59;102488.00000000001;;;16.38;61.96
50652;BME280;61429;52.086;5.240;2022-08-06T00:03:46;102486.99999999999;;;16.37;61.87
50652;BME280;61429;52.086;5.240;2022-08-06T00:07:20;102492.0;;;16.43;61.65
50652;BME280;61429;52.086;5.240;2022-08-06T00:09:06;102491.00000000001;;;16.32;62.12
50652;BME280;61429;52.086;5.240;2022-08-06T00:10:53;102493.0;;;16.28;62.24
50652;BME280;61429;52.086;5.240;2022-08-06T00:12:39;102492.0;;;16.27;62.39
50652;BME280;61429;52.086;5.240;2022-08-06T00:14:26;102496.0;;;16.2;62.45
50652;BME280;61429;52.086;5.240;2022-08-06T00:16:12;102494.0;;;16.18;62.56
50652;BME280;61429;52.086;5.240;2022-08-06T00:19:44;102492.0;;;16.22;62.43
50652;BME280;61429;52.086;5.240;2022-08-06T00:21:32;102492.0;;;16.2;62.43
50652;BME280;61429;52.086;5.240;2022-08-06T00:23:19;102494.0;;;16.21;62.41
50652;BME280;61429;52.086;5.240;2022-08-06T00:25:08;102493.0;;;16.15;62.48
50652;BME280;61429;52.086;5.240;2022-08-06T00:26:55;102496.0;;;16.18;62.52
50652;BME280;61429;52.086;5.240;2022-08-06T00:28:42;102502.0;;;16.21;62.42
50652;BME280;61429;52.086;5.240;2022-08-06T00:32:15;102505.0;;;16.21;62.36
50652;BME280;61429;52.086;5.240;2022-08-06T00:34:04;102501.0;;;16.13;62.73
50652;BME280;61429;52.086;5.240;2022-08-06T00:35:51;102504.0;;;16.15;62.64
50652;BME280;61429;52.086;5.240;2022-08-06T00:37:37;102507.0;;;16.09;62.95
50652;BME280;61429;52.086;5.240;2022-08-06T00:39:23;102511.99999999999;;;16.11;62.91
50652;BME280;61429;52.086;5.240;2022-08-06T00:41:10;102513.00000000001;;;16.07;63.08
50652;BME280;61429;52.086;5.240;2022-08-06T00:44:46;102518.0;;;16.0;63.1
50652;BME280;61429;52.086;5.240;2022-08-06T00:46:33;102517.0;;;16.0;63.32
50652;BME280;61429;52.086;5.240;2022-08-06T00:48:21;102516.00000000001;;;16.12;62.87
50652;BME280;61429;52.086;5.240;2022-08-06T00:50:08;102515.00000000001;;;16.11;62.71
50652;BME280;61429;52.086;5.240;2022-08-06T00:51:55;102520.0;;;16.09;62.89
50652;BME280;61429;52.086;5.240;2022-08-06T00:55:28;102524.0;;;16.07;62.67
50652;BME280;61429;52.086;5.240;2022-08-06T00:57:15;102524.0;;;16.04;62.87
50652;BME280;61429;52.086;5.240;2022-08-06T00:59:03;102529.0;;;15.96;63.26
50652;BME280;61429;52.086;5.240;2022-08-06T01:00:49;102532.0;;;15.88;63.53
50652;BME280;61429;52.086;5.240;2022-08-06T01:02:37;102533.99999999999;;;15.87;63.71
50652;BME280;61429;52.086;5.240;2022-08-06T01:04:23;102533.0;;;15.81;64.03
50652;BME280;61429;52.086;5.240;2022-08-06T01:07:56;102533.99999999999;;;15.73;64.13
50652;BME280;61429;52.086;5.240;2022-08-06T01:09:42;102533.0;;;15.67;64.47
50652;BME280;61429;52.086;5.240;2022-08-06T01:11:28;102538.00000000001;;;15.64;64.73
50652;BME280;61429;52.086;5.240;2022-08-06T01:13:15;102541.00000000001;;;15.68;64.47
50652;BME280;61429;52.086;5.240;2022-08-06T01:15:03;102542.0;;;15.68;64.44
50652;BME280;61429;52.086;5.240;2022-08-06T01:16:54;102543.0;;;15.66;64.44
50652;BME280;61429;52.086;5.240;2022-08-06T01:24:22;102542.0;;;15.59;64.85
50652;BME280;61429;52.086;5.240;2022-08-06T01:27:22;102543.0;;;15.54;65.13
50652;BME280;61429;52.086;5.240;2022-08-06T01:29:46;102549.0;;;15.58;64.94
50652;BME280;61429;52.086;5.240;2022-08-06T01:31:43;102549.0;;;15.53;65.09
50652;BME280;61429;52.086;5.240;2022-08-06T01:33:34;102554.0;;;15.52;65.3
50652;BME280;61429;52.086;5.240;2022-08-06T01:37:21;102549.0;;;15.5;65.27
50652;BME280;61429;52.086;5.240;2022-08-06T01:39:16;102555.0;;;15.56;65.02
50652;BME280;61429;52.086;5.240;2022-08-06T01:41:06;102551.0;;;15.49;65.08
50652;BME280;61429;52.086;5.240;2022-08-06T01:42:57;102552.0;;;15.41;65.33
50652;BME280;61429;52.086;5.240;2022-08-06T01:44:47;102554.0;;;15.37;65.41
50652;BME280;61429;52.086;5.240;2022-08-06T01:46:37;102556.0;;;15.47;65.02
50652;BME280;61429;52.086;5.240;2022-08-06T01:48:27;102553.0;;;15.37;65.3
50652;BME280;61429;52.086;5.240;2022-08-06T01:50:17;102556.0;;;15.44;65.03
50652;BME280;61429;52.086;5.240;2022-08-06T01:53:57;102559.99999999999;;;15.38;65.16
50652;BME280;61429;52.086;5.240;2022-08-06T01:55:49;102557.0;;;15.33;65.7
50652;BME280;61429;52.086;5.240;2022-08-06T01:57:41;102556.0;;;15.31;65.86
50652;BME280;61429;52.086;5.240;2022-08-06T01:59:32;102559.99999999999;;;15.37;65.45
50652;BME280;61429;52.086;5.240;2022-08-06T02:01:22;102559.99999999999;;;15.36;65.48
50652;BME280;61429;52.086;5.240;2022-08-06T02:03:14;102563.00000000001;;;15.32;65.73
50652;BME280;61429;52.086;5.240;2022-08-06T02:05:06;102566.00000000001;;;15.31;65.87
50652;BME280;61429;52.086;5.240;2022-08-06T02:08:44;102564.00000000001;;;15.33;65.63
50652;BME280;61429;52.086;5.240;2022-08-06T02:10:34;102563.00000000001;;;15.37;65.33
50652;BME280;61429;52.086;5.240;2022-08-06T02:12:24;102565.00000000001;;;15.26;65.58
50652;BME280;61429;52.086;5.240;2022-08-06T02:14:12;102567.0;;;15.17;66.17
50652;BME280;61429;52.086;5.240;2022-08-06T02:16:03;102569.0;;;15.15;66.13
50652;BME280;61429;52.086;5.240;2022-08-06T02:17:53;102572.0;;;15.15;66.25
50652;BME280;61429;52.086;5.240;2022-08-06T02:19:46;102569.0;;;15.12;66.42
50652;BME280;61429;52.086;5.240;2022-08-06T02:21:38;102570.0;;;15.14;66.36
50652;BME280;61429;52.086;5.240;2022-08-06T02:25:16;102571.0;;;15.14;66.34
50652;BME280;61429;52.086;5.240;2022-08-06T02:27:04;102569.0;;;15.15;65.94
50652;BME280;61429;52.086;5.240;2022-08-06T02:28:54;102569.0;;;15.13;65.55
50652;BME280;61429;52.086;5.240;2022-08-06T02:30:45;102566.00000000001;;;15.2;65.19
50652;BME280;61429;52.086;5.240;2022-08-06T02:32:33;102570.0;;;15.1;65.55
50652;BME280;61429;52.086;5.240;2022-08-06T02:34:20;102570.0;;;15.02;65.73
50652;BME280;61429;52.086;5.240;2022-08-06T02:38:07;102571.0;;;15.02;65.83
50652;BME280;61429;52.086;5.240;2022-08-06T02:40:02;102572.0;;;15.02;65.77
50652;BME280;61429;52.086;5.240;2022-08-06T02:42:01;102571.0;;;15.01;66.0
50652;BME280;61429;52.086;5.240;2022-08-06T02:43:52;102571.0;;;15.04;65.92
50652;BME280;61429;52.086;5.240;2022-08-06T02:45:44;102569.0;;;15.03;65.91
50652;BME280;61429;52.086;5.240;2022-08-06T02:47:38;102568.0;;;15.04;65.86
50652;BME280;61429;52.086;5.240;2022-08-06T02:49:28;102567.0;;;15.01;66.02
50652;BME280;61429;52.086;5.240;2022-08-06T02:51:27;102566.00000000001;;;15.02;66.16
50652;BME280;61429;52.086;5.240;2022-08-06T02:53:30;102570.0;;;15.07;66.08
50652;BME280;61429;52.086;5.240;2022-08-06T02:55:25;102569.0;;;15.01;65.89
50652;BME280;61429;52.086;5.240;2022-08-06T02:57:20;102566.00000000001;;;15.0;65.94
50652;BME280;61429;52.086;5.240;2022-08-06T02:59:17;102567.0;;;14.91;66.22
50652;BME280;61429;52.086;5.240;2022-08-06T03:03:14;102567.0;;;14.9;64.55
50652;BME280;61429;52.086;5.240;2022-08-06T03:05:05;102563.00000000001;;;14.92;63.79
50652;BME280;61429;52.086;5.240;2022-08-06T03:06:53;102567.0;;;14.84;63.17
50652;BME280;61429;52.086;5.240;2022-08-06T03:08:41;102566.00000000001;;;14.89;62.87
50652;BME280;61429;52.086;5.240;2022-08-06T03:10:29;102571.0;;;14.75;63.17
50652;BME280;61429;52.086;5.240;2022-08-06T03:12:20;102576.0;;;14.87;63.24
50652;BME280;61429;52.086;5.240;2022-08-06T03:14:08;102573.0;;;14.85;63.32
50652;BME280;61429;52.086;5.240;2022-08-06T03:15:58;102579.0;;;14.81;63.98
50652;BME280;61429;52.086;5.240;2022-08-06T03:19:37;102575.0;;;14.82;62.09
50652;BME280;61429;52.086;5.240;2022-08-06T03:21:25;102579.0;;;14.63;62.35
50652;BME280;61429;52.086;5.240;2022-08-06T03:23:15;102579.0;;;14.73;61.89
50652;BME280;61429;52.086;5.240;2022-08-06T03:25:03;102577.0;;;14.66;62.32
50652;BME280;61429;52.086;5.240;2022-08-06T03:26:54;102583.99999999999;;;14.72;62.59
50652;BME280;61429;52.086;5.240;2022-08-06T03:28:42;102580.0;;;14.61;63.1
50652;BME280;61429;52.086;5.240;2022-08-06T03:32:18;102582.0;;;14.73;62.22
50652;BME280;61429;52.086;5.240;2022-08-06T03:34:06;102584.99999999999;;;14.6;61.74
50652;BME280;61429;52.086;5.240;2022-08-06T03:35:55;102591.00000000001;;;14.51;63.28
50652;BME280;61429;52.086;5.240;2022-08-06T03:37:45;102586.99999999999;;;14.59;63.21
50652;BME280;61429;52.086;5.240;2022-08-06T03:39:33;102592.0;;;14.4;63.85
50652;BME280;61429;52.086;5.240;2022-08-06T03:41:20;102594.0;;;14.44;63.95
50652;BME280;61429;52.086;5.240;2022-08-06T03:44:54;102594.0;;;14.51;63.97
50652;BME280;61429;52.086;5.240;2022-08-06T03:46:43;102596.0;;;14.51;64.83
50652;BME280;61429;52.086;5.240;2022-08-06T03:48:34;102594.0;;;14.45;65.0
50652;BME280;61429;52.086;5.240;2022-08-06T03:50:28;102595.0;;;14.54;65.05
50652;BME280;61429;52.086;5.240;2022-08-06T03:52:21;102598.0;;;14.54;64.64
50652;BME280;61429;52.086;5.240;2022-08-06T03:54:10;102599.0;;;14.52;63.7
50652;BME280;61429;52.086;5.240;2022-08-06T03:56:01;102595.0;;;14.52;63.85
50652;BME280;61429;52.086;5.240;2022-08-06T03:57:51;102593.0;;;14.48;63.32
50652;BME280;61429;52.086;5.240;2022-08-06T04:01:33;102600.0;;;14.61;62.26
50652;BME280;61429;52.086;5.240;2022-08-06T04:03:21;102595.0;;;14.61;62.04
50652;BME280;61429;52.086;5.240;2022-08-06T04:05:10;102599.0;;;14.59;62.92
50652;BME280;61429;52.086;5.240;2022-08-06T04:06:58;102599.0;;;14.59;62.62
50652;BME280;61429;52.086;5.240;2022-08-06T04:08:47;102600.0;;;14.56;61.88
50652;BME280;61429;52.086;5.240;2022-08-06T04:10:37;102598.0;;;14.45;61.49
50652;BME280;61429;52.086;5.240;2022-08-06T04:14:13;102599.0;;;14.48;61.02
50652;BME280;61429;52.086;5.240;2022-08-06T04:16:00;102606.0;;;14.5;60.65
50652;BME280;61429;52.086;5.240;2022-08-06T04:17:47;102608.99999999999;;;14.39;60.61
50652;BME280;61429;52.086;5.240;2022-08-06T04:19:37;102606.0;;;14.29;60.71
50652;BME280;61429;52.086;5.240;2022-08-06T04:21:25;102607.0;;;14.32;60.59
50652;BME280;61429;52.086;5.240;2022-08-06T04:23:13;102613.00000000001;;;14.32;60.42
50652;BME280;61429;52.086;5.240;2022-08-06T04:25:01;102617.0;;;14.32;60.37
50652;BME280;61429;52.086;5.240;2022-08-06T04:28:42;102616.00000000001;;;14.23;60.68
50652;BME280;61429;52.086;5.240;2022-08-06T04:30:30;102616.00000000001;;;14.33;60.33
50652;BME280;61429;52.086;5.240;2022-08-06T04:32:19;102617.0;;;14.33;60.27
50652;BME280;61429;52.086;5.240;2022-08-06T04:34:08;102616.00000000001;;;14.23;60.61
50652;BME280;61429;52.086;5.240;2022-08-06T04:35:58;102616.00000000001;;;14.2;60.84
50652;BME280;61429;52.086;5.240;2022-08-06T04:37:46;102608.99999999999;;;14.23;60.83
50652;BME280;61429;52.086;5.240;2022-08-06T04:41:20;102609.99999999999;;;14.34;60.6
50652;BME280;61429;52.086;5.240;2022-08-06T04:43:08;102616.00000000001;;;14.45;60.34
50652;BME280;61429;52.086;5.240;2022-08-06T04:44:56;102616.00000000001;;;14.7;59.67
50652;BME280;61429;52.086;5.240;2022-08-06T04:46:48;102621.0;;;14.86;58.85
50652;BME280;61429;52.086;5.240;2022-08-06T04:48:36;102621.0;;;15.12;58.18
50652;BME280;61429;52.086;5.240;2022-08-06T04:50:23;102625.0;;;15.26;57.68
50652;BME280;61429;52.086;5.240;2022-08-06T04:52:20;102627.0;;;15.25;58.07
50652;BME280;61429;52.086;5.240;2022-08-06T04:55:53;102628.0;;;15.33;57.92
50652;BME280;61429;52.086;5.240;2022-08-06T04:57:39;102628.0;;;15.37;57.58
50652;BME280;61429;52.086;5.240;2022-08-06T04:59:25;102633.0;;;15.43;57.17
50652;BME280;61429;52.086;5.240;2022-08-06T05:01:11;102634.99999999999;;;15.47;57.11
50652;BME280;61429;52.086;5.240;2022-08-06T05:02:59;102639.00000000001;;;15.53;57.09
50652;BME280;61429;52.086;5.240;2022-08-06T05:04:46;102642.0;;;15.88;55.59
50652;BME280;61429;52.086;5.240;2022-08-06T05:08:36;102642.0;;;16.03;54.92
50652;BME280;61429;52.086;5.240;2022-08-06T05:10:30;102643.0;;;16.15;54.56
50652;BME280;61429;52.086;5.240;2022-08-06T05:12:23;102645.0;;;16.18;54.47
50652;BME280;61429;52.086;5.240;2022-08-06T05:14:15;102651.0;;;16.18;54.74
50652;BME280;61429;52.086;5.240;2022-08-06T05:16:14;102654.0;;;15.96;55.35
50652;BME280;61429;52.086;5.240;2022-08-06T05:18:07;102655.0;;;15.75;56.4
50652;BME280;61429;52.086;5.240;2022-08-06T05:20:02;102656.0;;;15.5;57.23
50652;BME280;61429;52.086;5.240;2022-08-06T05:22:01;102663.00000000001;;;15.5;57.67
50652;BME280;61429;52.086;5.240;2022-08-06T05:23:50;102664.00000000001;;;15.55;57.92
50652;BME280;61429;52.086;5.240;2022-08-06T05:25:41;102668.0;;;15.57;58.02
50652;BME280;61429;52.086;5.240;2022-08-06T05:29:18;102667.0;;;15.55;58.38
50652;BME280;61429;52.086;5.240;2022-08-06T05:31:05;102667.0;;;15.46;58.96
50652;BME280;61429;52.086;5.240;2022-08-06T05:32:52;102670.0;;;15.48;59.26
50652;BME280;61429;52.086;5.240;2022-08-06T05:34:38;102667.0;;;15.37;60.05
50652;BME280;61429;52.086;5.240;2022-08-06T05:36:24;102666.00000000001;;;15.47;60.25
50652;BME280;61429;52.086;5.240;2022-08-06T05:39:57;102670.0;;;15.48;60.84
50652;BME280;61429;52.086;5.240;2022-08-06T05:41:44;102672.0;;;15.53;61.07
50652;BME280;61429;52.086;5.240;2022-08-06T05:43:30;102675.0;;;15.53;61.61
50652;BME280;61429;52.086;5.240;2022-08-06T05:45:19;102680.0;;;15.53;62.14
50652;BME280;61429;52.086;5.240;2022-08-06T05:47:10;102681.0;;;15.56;62.56
50652;BME280;61429;52.086;5.240;2022-08-06T05:49:07;102682.0;;;15.62;62.55
50652;BME280;61429;52.086;5.240;2022-08-06T05:51:09;102682.0;;;15.58;63.49
50652;BME280;61429;52.086;5.240;2022-08-06T05:53:08;102681.0;;;15.62;63.56
50652;BME280;61429;52.086;5.240;2022-08-06T05:55:00;102679.0;;;15.67;63.68
50652;BME280;61429;52.086;5.240;2022-08-06T05:58:55;102682.0;;;15.79;63.38
50652;BME280;61429;52.086;5.240;2022-08-06T06:00:47;102683.0;;;15.74;64.22
50652;BME280;61429;52.086;5.240;2022-08-06T06:02:39;102688.00000000001;;;15.87;63.9
50652;BME280;61429;52.086;5.240;2022-08-06T06:04:28;102692.0;;;15.88;64.02
50652;BME280;61429;52.086;5.240;2022-08-06T06:06:16;102695.0;;;15.96;64.17
50652;BME280;61429;52.086;5.240;2022-08-06T06:08:05;102695.0;;;15.84;64.73
50652;BME280;61429;52.086;5.240;2022-08-06T06:09:54;102700.0;;;15.98;64.53
50652;BME280;61429;52.086;5.240;2022-08-06T06:11:41;102698.0;;;16.09;64.22
50652;BME280;61429;52.086;5.240;2022-08-06T06:15:17;102699.0;;;16.25;63.83
50652;BME280;61429;52.086;5.240;2022-08-06T06:18:15;102701.0;;;16.36;63.49
50652;BME280;61429;52.086;5.240;2022-08-06T06:20:12;102705.0;;;16.48;63.37
50652;BME280;61429;52.086;5.240;2022-08-06T06:24:11;102706.0;;;16.59;62.98
50652;BME280;61429;52.086;5.240;2022-08-06T06:26:10;102709.99999999999;;;16.68;62.87
50652;BME280;61429;52.086;5.240;2022-08-06T06:28:13;102717.0;;;16.66;63.2
50652;BME280;61429;52.086;5.240;2022-08-06T06:30:10;102716.00000000001;;;16.68;63.28
50652;BME280;61429;52.086;5.240;2022-08-06T06:32:05;102717.0;;;16.77;63.2
50652;BME280;61429;52.086;5.240;2022-08-06T06:34:11;102714.00000000001;;;16.82;63.02
50652;BME280;61429;52.086;5.240;2022-08-06T06:36:07;102713.00000000001;;;16.89;63.26
50652;BME280;61429;52.086;5.240;2022-08-06T06:38:17;102708.99999999999;;;16.97;63.32
50652;BME280;61429;52.086;5.240;2022-08-06T06:40:25;102717.0;;;17.0;63.14
50652;BME280;61429;52.086;5.240;2022-08-06T06:42:29;102714.00000000001;;;17.05;63.07
50652;BME280;61429;52.086;5.240;2022-08-06T06:44:33;102715.00000000001;;;17.16;62.67
50652;BME280;61429;52.086;5.240;2022-08-06T06:46:23;102711.99999999999;;;17.2;62.71
50652;BME280;61429;52.086;5.240;2022-08-06T06:48:23;102713.00000000001;;;17.31;62.41
50652;BME280;61429;52.086;5.240;2022-08-06T06:50:15;102708.99999999999;;;17.34;62.37
50652;BME280;61429;52.086;5.240;2022-08-06T06:52:09;102709.99999999999;;;17.39;62.32
50652;BME280;61429;52.086;5.240;2022-08-06T06:54:17;102715.00000000001;;;17.45;62.2
50652;BME280;61429;52.086;5.240;2022-08-06T06:56:24;102715.00000000001;;;17.55;61.99
50652;BME280;61429;52.086;5.240;2022-08-06T06:58:19;102709.99999999999;;;17.62;61.75
50652;BME280;61429;52.086;5.240;2022-08-06T07:00:15;102709.99999999999;;;17.72;61.68
50652;BME280;61429;52.086;5.240;2022-08-06T07:02:03;102715.00000000001;;;17.66;61.95
50652;BME280;61429;52.086;5.240;2022-08-06T07:05:41;102715.00000000001;;;17.68;59.76
50652;BME280;61429;52.086;5.240;2022-08-06T07:07:31;102718.0;;;18.09;59.61
50652;BME280;61429;52.086;5.240;2022-08-06T07:09:22;102717.0;;;18.14;56.31
50652;BME280;61429;52.086;5.240;2022-08-06T07:11:11;102720.0;;;18.2;55.54
50652;BME280;61429;52.086;5.240;2022-08-06T07:13:03;102721.0;;;18.27;57.19
50652;BME280;61429;52.086;5.240;2022-08-06T07:14:53;102721.0;;;18.36;54.27
50652;BME280;61429;52.086;5.240;2022-08-06T07:16:42;102719.0;;;18.5;54.11
50652;BME280;61429;52.086;5.240;2022-08-06T07:20:23;102722.0;;;18.59;53.9
50652;BME280;61429;52.086;5.240;2022-08-06T07:22:17;102719.0;;;18.5;54.55
50652;BME280;61429;52.086;5.240;2022-08-06T07:24:08;102724.0;;;18.52;54.89
50652;BME280;61429;52.086;5.240;2022-08-06T07:25:56;102734.99999999999;;;18.61;54.74
50652;BME280;61429;52.086;5.240;2022-08-06T07:27:50;102731.0;;;18.7;53.77
50652;BME280;61429;52.086;5.240;2022-08-06T07:29:39;102736.99999999999;;;18.68;52.86
50652;BME280;61429;52.086;5.240;2022-08-06T07:31:27;102730.0;;;18.62;51.75
50652;BME280;61429;52.086;5.240;2022-08-06T07:33:16;102732.0;;;18.64;51.66
50652;BME280;61429;52.086;5.240;2022-08-06T07:36:55;102732.0;;;18.86;51.5
50652;BME280;61429;52.086;5.240;2022-08-06T07:38:44;102733.0;;;18.93;51.59
50652;BME280;61429;52.086;5.240;2022-08-06T07:40:37;102734.99999999999;;;19.11;52.2
50652;BME280;61429;52.086;5.240;2022-08-06T07:42:28;102736.99999999999;;;18.91;51.5
50652;BME280;61429;52.086;5.240;2022-08-06T07:44:15;102733.0;;;18.7;51.45
50652;BME280;61429;52.086;5.240;2022-08-06T07:46:06;102727.0;;;18.8;51.25
50652;BME280;61429;52.086;5.240;2022-08-06T07:47:55;102731.0;;;18.7;50.87
50652;BME280;61429;52.086;5.240;2022-08-06T07:51:38;102736.99999999999;;;19.0;49.79
50652;BME280;61429;52.086;5.240;2022-08-06T07:53:33;102732.0;;;18.62;50.28
50652;BME280;61429;52.086;5.240;2022-08-06T07:55:22;102733.99999999999;;;18.98;50.15
50652;BME280;61429;52.086;5.240;2022-08-06T07:57:11;102741.00000000001;;;19.0;50.48
50652;BME280;61429;52.086;5.240;2022-08-06T07:58:58;102736.99999999999;;;18.8;50.02
50652;BME280;61429;52.086;5.240;2022-08-06T08:00:48;102742.0;;;18.59;51.08
50652;BME280;61429;52.086;5.240;2022-08-06T08:02:36;102738.00000000001;;;18.45;51.82
50652;BME280;61429;52.086;5.240;2022-08-06T08:07:26;102742.0;;;18.77;51.51
50652;BME280;61429;52.086;5.240;2022-08-06T08:09:15;102742.0;;;18.96;51.05
50652;BME280;61429;52.086;5.240;2022-08-06T08:11:05;102741.00000000001;;;18.71;50.95
50652;BME280;61429;52.086;5.240;2022-08-06T08:14:42;102750.0;;;18.91;50.73
50652;BME280;61429;52.086;5.240;2022-08-06T08:16:30;102743.0;;;18.88;51.21
50652;BME280;61429;52.086;5.240;2022-08-06T08:18:18;102744.0;;;19.09;51.07
50652;BME280;61429;52.086;5.240;2022-08-06T08:20:06;102755.0;;;18.66;51.07
50652;BME280;61429;52.086;5.240;2022-08-06T08:21:53;102746.0;;;18.98;49.85
50652;BME280;61429;52.086;5.240;2022-08-06T08:23:41;102750.0;;;18.93;49.57
50652;BME280;61429;52.086;5.240;2022-08-06T08:27:16;102752.0;;;18.82;49.22
50652;BME280;61429;52.086;5.240;2022-08-06T08:29:02;102753.0;;;18.5;50.53
50652;BME280;61429;52.086;5.240;2022-08-06T08:30:48;102749.0;;;18.7;50.2
50652;BME280;61429;52.086;5.240;2022-08-06T08:32:35;102746.0;;;18.75;50.15
50652;BME280;61429;52.086;5.240;2022-08-06T08:34:22;102750.0;;;18.86;49.32
50652;BME280;61429;52.086;5.240;2022-08-06T08:36:09;102751.0;;;18.91;48.8
50652;BME280;61429;52.086;5.240;2022-08-06T08:39:42;102751.0;;;19.06;48.92
50652;BME280;61429;52.086;5.240;2022-08-06T08:41:32;102750.0;;;19.18;48.25
50652;BME280;61429;52.086;5.240;2022-08-06T08:43:24;102752.0;;;19.11;48.15
50652;BME280;61429;52.086;5.240;2022-08-06T08:45:23;102750.0;;;19.23;47.78
50652;BME280;61429;52.086;5.240;2022-08-06T08:47:13;102749.0;;;19.31;47.64
50652;BME280;61429;52.086;5.240;2022-08-06T08:49:02;102743.0;;;19.5;47.73
50652;BME280;61429;52.086;5.240;2022-08-06T08:50:50;102742.0;;;19.5;48.12
50652;BME280;61429;52.086;5.240;2022-08-06T08:54:27;102750.0;;;19.36;48.22
50652;BME280;61429;52.086;5.240;2022-08-06T08:56:16;102748.0;;;19.37;47.6
50652;BME280;61429;52.086;5.240;2022-08-06T08:58:03;102754.0;;;19.27;47.37
50652;BME280;61429;52.086;5.240;2022-08-06T08:59:50;102749.0;;;19.2;46.68
50652;BME280;61429;52.086;5.240;2022-08-06T09:01:39;102748.0;;;19.16;45.73
50652;BME280;61429;52.086;5.240;2022-08-06T09:03:26;102746.0;;;19.34;46.21
50652;BME280;61429;52.086;5.240;2022-08-06T09:07:02;102754.0;;;19.29;46.93
50652;BME280;61429;52.086;5.240;2022-08-06T09:08:50;102749.0;;;19.52;46.65
50652;BME280;61429;52.086;5.240;2022-08-06T09:10:36;102748.0;;;19.63;45.78
50652;BME280;61429;52.086;5.240;2022-08-06T09:12:24;102750.0;;;19.7;45.5
50652;BME280;61429;52.086;5.240;2022-08-06T09:14:11;102755.0;;;19.91;44.8
50652;BME280;61429;52.086;5.240;2022-08-06T09:15:57;102758.0;;;19.75;43.85
50652;BME280;61429;52.086;5.240;2022-08-06T09:19:32;102757.0;;;19.52;44.23
50652;BME280;61429;52.086;5.240;2022-08-06T09:21:19;102764.00000000001;;;19.25;44.95
50652;BME280;61429;52.086;5.240;2022-08-06T09:23:05;102759.99999999999;;;19.61;44.51
50652;BME280;61429;52.086;5.240;2022-08-06T09:24:51;102765.00000000001;;;19.86;44.19
50652;BME280;61429;52.086;5.240;2022-08-06T09:27:00;102766.00000000001;;;19.66;44.42
50652;BME280;61429;52.086;5.240;2022-08-06T09:28:49;102763.00000000001;;;19.52;45.05
50652;BME280;61429;52.086;5.240;2022-08-06T09:30:36;102768.0;;;19.73;44.78
50652;BME280;61429;52.086;5.240;2022-08-06T09:34:32;102766.00000000001;;;19.7;42.86
50652;BME280;61429;52.086;5.240;2022-08-06T09:36:19;102765.00000000001;;;19.7;41.18
50652;BME280;61429;52.086;5.240;2022-08-06T09:38:07;102769.0;;;19.84;42.12
50652;BME280;61429;52.086;5.240;2022-08-06T09:39:54;102765.00000000001;;;19.87;41.99
50652;BME280;61429;52.086;5.240;2022-08-06T09:41:45;102764.00000000001;;;19.95;42.01
50652;BME280;61429;52.086;5.240;2022-08-06T09:43:33;102758.99999999999;;;20.09;41.87
50652;BME280;61429;52.086;5.240;2022-08-06T09:45:20;102758.0;;;20.39;41.62
50652;BME280;61429;52.086;5.240;2022-08-06T09:47:19;102757.0;;;20.54;40.97
50652;BME280;61429;52.086;5.240;2022-08-06T09:50:54;102761.99999999999;;;20.58;42.18
50652;BME280;61429;52.086;5.240;2022-08-06T09:52:41;102761.99999999999;;;20.71;41.63
50652;BME280;61429;52.086;5.240;2022-08-06T09:54:36;102763.00000000001;;;20.45;42.07
50652;BME280;61429;52.086;5.240;2022-08-06T09:56:23;102759.99999999999;;;20.41;42.17
50652;BME280;61429;52.086;5.240;2022-08-06T09:58:10;102757.0;;;20.25;42.47
50652;BME280;61429;52.086;5.240;2022-08-06T09:59:56;102753.0;;;20.32;42.4
50652;BME280;61429;52.086;5.240;2022-08-06T10:03:38;102758.0;;;20.41;42.15
50652;BME280;61429;52.086;5.240;2022-08-06T10:05:25;102757.0;;;20.48;42.02
50652;BME280;61429;52.086;5.240;2022-08-06T10:07:13;102755.0;;;20.61;41.73
50652;BME280;61429;52.086;5.240;2022-08-06T10:09:08;102756.0;;;20.56;39.47
50652;BME280;61429;52.086;5.240;2022-08-06T10:11:02;102752.0;;;20.73;39.37
50652;BME280;61429;52.086;5.240;2022-08-06T10:13:10;102750.0;;;20.9;39.81
50652;BME280;61429;52.086;5.240;2022-08-06T10:14:57;102755.0;;;20.67;39.35
50652;BME280;61429;52.086;5.240;2022-08-06T10:16:44;102753.0;;;20.62;39.74
50652;BME280;61429;52.086;5.240;2022-08-06T10:20:22;102750.0;;;20.97;39.67
50652;BME280;61429;52.086;5.240;2022-08-06T10:22:10;102745.0;;;21.24;39.75
50652;BME280;61429;52.086;5.240;2022-08-06T10:24:00;102743.0;;;21.44;39.5
50652;BME280;61429;52.086;5.240;2022-08-06T10:25:47;102747.0;;;21.5;39.35
50652;BME280;61429;52.086;5.240;2022-08-06T10:27:34;102752.0;;;21.25;41.37
50652;BME280;61429;52.086;5.240;2022-08-06T10:29:21;102752.0;;;21.28;41.97
50652;BME280;61429;52.086;5.240;2022-08-06T10:31:11;102754.0;;;21.08;41.69
50652;BME280;61429;52.086;5.240;2022-08-06T10:34:53;102751.0;;;21.08;40.96
50652;BME280;61429;52.086;5.240;2022-08-06T10:36:43;102755.0;;;20.72;41.24
50652;BME280;61429;52.086;5.240;2022-08-06T10:38:38;102761.99999999999;;;20.71;40.9
50652;BME280;61429;52.086;5.240;2022-08-06T10:40:26;102766.00000000001;;;20.81;41.45
50652;BME280;61429;52.086;5.240;2022-08-06T10:42:14;102761.99999999999;;;20.69;42.07
50652;BME280;61429;52.086;5.240;2022-08-06T10:44:01;102766.00000000001;;;20.68;42.11
50652;BME280;61429;52.086;5.240;2022-08-06T10:45:49;102755.0;;;20.57;41.44
50652;BME280;61429;52.086;5.240;2022-08-06T10:49:26;102749.0;;;20.82;40.4
50652;BME280;61429;52.086;5.240;2022-08-06T10:51:14;102746.0;;;21.04;40.24